createdAt,value
2023-01-12T00:00:59.434Z,7.94
2023-01-12T00:01:59.477Z,7.95
2023-01-12T00:02:59.475Z,7.95
2023-01-12T00:03:59.461Z,7.97
2023-01-12T00:04:59.390Z,8.00
2023-01-12T00:05:59.369Z,7.98
2023-01-12T00:07:02.364Z,8.01
2023-01-12T00:08:04.645Z,8.03
2023-01-12T00:08:59.328Z,8.03
2023-01-12T00:09:59.336Z,8.03
2023-01-12T00:10:59.302Z,8.05
2023-01-12T00:11:59.292Z,8.06
2023-01-12T00:12:59.279Z,8.05
2023-01-12T00:13:59.259Z,8.06
2023-01-12T00:14:59.296Z,8.06
2023-01-12T00:15:59.261Z,8.06
2023-01-12T00:16:59.208Z,8.08
2023-01-12T00:17:59.233Z,8.08
2023-01-12T00:18:59.185Z,8.08
2023-01-12T00:19:59.178Z,8.10
2023-01-12T00:20:59.189Z,8.10
2023-01-12T00:21:59.188Z,8.09
2023-01-12T00:22:59.132Z,8.09
2023-01-12T00:23:59.131Z,8.09
2023-01-12T00:24:59.110Z,8.09
2023-01-12T00:25:59.124Z,8.08
2023-01-12T00:27:02.141Z,8.08
2023-01-12T00:28:02.082Z,8.03
2023-01-12T00:28:59.041Z,8.03
2023-01-12T00:29:59.066Z,7.98
2023-01-12T00:30:59.078Z,7.97
2023-01-12T00:31:59.015Z,7.95
2023-01-12T00:32:59.011Z,7.95
2023-01-12T00:33:59.071Z,7.94
2023-01-12T00:34:58.970Z,7.94
2023-01-12T00:35:58.952Z,7.95
2023-01-12T00:36:58.952Z,7.95
2023-01-12T00:37:58.941Z,7.94
2023-01-12T00:38:58.917Z,7.93
2023-01-12T00:40:02.644Z,7.95
2023-01-12T00:40:58.883Z,7.97
2023-01-12T00:41:58.938Z,7.97
2023-01-12T00:42:58.860Z,7.95
2023-01-12T00:43:58.856Z,7.97
2023-01-12T00:44:58.851Z,7.98
2023-01-12T00:45:58.875Z,7.94
2023-01-12T00:47:01.863Z,7.94
2023-01-12T00:48:01.809Z,7.93
2023-01-12T00:48:58.779Z,7.93
2023-01-12T00:49:58.789Z,7.93
2023-01-12T00:51:06.308Z,7.95
2023-01-12T00:51:58.745Z,7.97
2023-01-12T00:52:58.816Z,7.97
2023-01-12T00:53:58.755Z,7.97
2023-01-12T00:54:58.725Z,7.97
2023-01-12T00:55:58.715Z,7.97
2023-01-12T00:56:58.687Z,7.98
2023-01-12T00:57:58.695Z,8.00
2023-01-12T00:58:58.677Z,8.03
2023-01-12T00:59:58.647Z,8.05
2023-01-12T01:00:58.749Z,8.09
2023-01-12T01:01:58.668Z,8.08
2023-01-12T01:02:58.668Z,8.08
2023-01-12T01:03:58.589Z,8.05
2023-01-12T01:04:58.583Z,8.05
2023-01-12T01:05:58.576Z,8.05
2023-01-12T01:07:01.599Z,8.05
2023-01-12T01:08:01.563Z,8.03
2023-01-12T01:08:58.521Z,8.05
2023-01-12T01:09:58.524Z,8.05
2023-01-12T01:10:58.532Z,8.05
2023-01-12T01:11:58.507Z,8.06
2023-01-12T01:12:58.484Z,8.06
2023-01-12T01:13:58.488Z,8.06
2023-01-12T01:14:58.432Z,8.06
2023-01-12T01:15:58.448Z,8.06
2023-01-12T01:16:58.431Z,8.08
2023-01-12T01:17:58.457Z,8.06
2023-01-12T01:18:58.415Z,8.08
2023-01-12T01:19:58.422Z,8.06
2023-01-12T01:20:58.354Z,8.09
2023-01-12T01:21:58.343Z,8.09
2023-01-12T01:22:58.349Z,8.12
2023-01-12T01:23:58.384Z,8.12
2023-01-12T01:24:58.320Z,8.15
2023-01-12T01:25:58.280Z,8.13
2023-01-12T01:27:01.274Z,8.15
2023-01-12T01:28:01.276Z,8.13
2023-01-12T01:28:58.232Z,8.13
2023-01-12T01:29:58.265Z,8.10
2023-01-12T01:30:58.253Z,8.08
2023-01-12T01:31:58.198Z,8.06
2023-01-12T01:32:58.196Z,8.06
2023-01-12T01:33:58.233Z,8.05
2023-01-12T01:34:58.201Z,8.06
2023-01-12T01:35:58.161Z,8.06
2023-01-12T01:36:58.149Z,8.08
2023-01-12T01:37:58.162Z,8.08
2023-01-12T01:38:58.117Z,8.05
2023-01-12T01:39:58.095Z,8.05
2023-01-12T01:40:58.077Z,8.08
2023-01-12T01:41:58.107Z,8.08
2023-01-12T01:42:58.089Z,8.06
2023-01-12T01:43:58.065Z,8.06
2023-01-12T01:44:58.021Z,8.08
2023-01-12T01:45:58.032Z,8.08
2023-01-12T01:47:01.001Z,8.06
2023-01-12T01:48:01.039Z,8.05
2023-01-12T01:48:57.958Z,8.06
2023-01-12T01:49:58.016Z,8.03
2023-01-12T01:50:57.939Z,8.05
2023-01-12T01:51:57.936Z,8.00
2023-01-12T01:52:57.928Z,8.03
2023-01-12T01:53:57.903Z,8.06
2023-01-12T01:54:57.892Z,8.10
2023-01-12T01:55:57.920Z,8.10
2023-01-12T01:56:57.854Z,8.12
2023-01-12T01:57:57.828Z,8.12
2023-01-12T01:58:57.818Z,8.13
2023-01-12T01:59:57.802Z,8.13
2023-01-12T02:00:57.835Z,8.13
2023-01-12T02:01:57.823Z,8.10
2023-01-12T02:02:57.835Z,8.09
2023-01-12T02:03:57.751Z,8.06
2023-01-12T02:04:57.730Z,8.05
2023-01-12T02:05:57.715Z,8.00
2023-01-12T02:07:00.761Z,7.98
2023-01-12T02:08:00.713Z,8.01
2023-01-12T02:08:57.685Z,7.98
2023-01-12T02:09:57.665Z,7.95
2023-01-12T02:10:57.653Z,7.95
2023-01-12T02:11:57.638Z,7.93
2023-01-12T02:12:57.643Z,7.91
2023-01-12T02:13:57.617Z,7.90
2023-01-12T02:14:57.592Z,7.90
2023-01-12T02:15:57.684Z,7.90
2023-01-12T02:16:57.586Z,7.91
2023-01-12T02:17:57.558Z,7.91
2023-01-12T02:18:57.557Z,7.88
2023-01-12T02:19:57.555Z,7.90
2023-01-12T02:20:57.506Z,7.90
2023-01-12T02:21:57.497Z,7.85
2023-01-12T02:22:57.477Z,7.85
2023-01-12T02:23:57.528Z,7.83
2023-01-12T02:24:57.457Z,7.83
2023-01-12T02:25:57.455Z,7.82
2023-01-12T02:27:00.428Z,7.82
2023-01-12T02:28:00.426Z,7.82
2023-01-12T02:28:57.413Z,7.80
2023-01-12T02:29:57.418Z,7.79
2023-01-12T02:30:57.419Z,7.79
2023-01-12T02:31:57.358Z,7.77
2023-01-12T02:32:57.389Z,7.79
2023-01-12T02:33:57.327Z,7.77
2023-01-12T02:34:57.310Z,7.77
2023-01-12T02:35:57.300Z,7.73
2023-01-12T02:36:57.300Z,7.72
2023-01-12T02:37:57.282Z,7.69
2023-01-12T02:38:57.296Z,7.69
2023-01-12T02:39:57.250Z,7.69
2023-01-12T02:40:57.231Z,7.67
2023-01-12T02:41:57.233Z,7.69
2023-01-12T02:42:57.201Z,7.70
2023-01-12T02:43:57.192Z,7.69
2023-01-12T02:44:57.219Z,7.69
2023-01-12T02:45:57.165Z,7.67
2023-01-12T02:47:00.152Z,7.69
2023-01-12T02:48:00.177Z,7.67
2023-01-12T02:48:57.132Z,7.67
2023-01-12T02:49:57.114Z,7.66
2023-01-12T02:50:57.157Z,7.61
2023-01-12T02:51:57.083Z,7.58
2023-01-12T02:52:57.064Z,7.57
2023-01-12T02:53:57.053Z,7.54
2023-01-12T02:54:57.055Z,7.54
2023-01-12T02:55:57.047Z,7.54
2023-01-12T02:56:57.065Z,7.51
2023-01-12T02:57:57.004Z,7.54
2023-01-12T02:58:56.982Z,7.56
2023-01-12T02:59:56.973Z,7.57
2023-01-12T03:00:57.070Z,7.63
2023-01-12T03:01:56.944Z,7.67
2023-01-12T03:02:57.037Z,7.72
2023-01-12T03:03:56.924Z,7.72
2023-01-12T03:04:56.908Z,7.76
2023-01-12T03:05:56.897Z,7.75
2023-01-12T03:06:59.891Z,7.79
2023-01-12T03:07:59.944Z,7.77
2023-01-12T03:08:56.851Z,7.79
2023-01-12T03:09:56.847Z,7.76
2023-01-12T03:10:56.817Z,7.77
2023-01-12T03:11:56.821Z,7.79
2023-01-12T03:12:56.799Z,7.77
2023-01-12T03:13:56.813Z,7.79
2023-01-12T03:14:56.759Z,7.82
2023-01-12T03:15:56.895Z,7.80
2023-01-12T03:16:56.739Z,7.79
2023-01-12T03:17:56.730Z,7.76
2023-01-12T03:18:56.709Z,7.76
2023-01-12T03:19:56.708Z,7.76
2023-01-12T03:20:56.707Z,7.75
2023-01-12T03:21:56.730Z,7.76
2023-01-12T03:22:56.664Z,7.76
2023-01-12T03:23:56.659Z,7.75
2023-01-12T03:24:56.637Z,7.76
2023-01-12T03:25:56.623Z,7.76
2023-01-12T03:26:59.649Z,7.76
2023-01-12T03:27:59.612Z,7.76
2023-01-12T03:28:56.572Z,7.76
2023-01-12T03:29:56.570Z,7.75
2023-01-12T03:30:56.559Z,7.75
2023-01-12T03:31:56.539Z,7.75
2023-01-12T03:32:56.553Z,7.73
2023-01-12T03:33:56.541Z,7.73
2023-01-12T03:34:56.553Z,7.72
2023-01-12T03:35:56.489Z,7.70
2023-01-12T03:36:56.464Z,7.72
2023-01-12T03:37:56.453Z,7.69
2023-01-12T03:38:56.436Z,7.72
2023-01-12T03:39:56.446Z,7.72
2023-01-12T03:40:56.447Z,7.73
2023-01-12T03:41:56.425Z,7.73
2023-01-12T03:42:56.381Z,7.75
2023-01-12T03:43:56.369Z,7.76
2023-01-12T03:44:56.363Z,7.76
2023-01-12T03:45:56.337Z,7.76
2023-01-12T03:46:59.390Z,7.77
2023-01-12T03:47:59.353Z,7.77
2023-01-12T03:48:56.296Z,7.79
2023-01-12T03:49:56.358Z,7.77
2023-01-12T03:50:56.270Z,7.79
2023-01-12T03:51:56.277Z,7.80
2023-01-12T03:52:56.248Z,7.80
2023-01-12T03:53:56.227Z,7.79
2023-01-12T03:54:56.216Z,7.82
2023-01-12T03:55:56.255Z,7.82
2023-01-12T03:56:56.202Z,7.82
2023-01-12T03:57:56.178Z,7.83
2023-01-12T03:58:56.163Z,7.85
2023-01-12T03:59:56.150Z,7.83
2023-01-12T04:00:56.241Z,7.87
2023-01-12T04:01:56.328Z,7.83
2023-01-12T04:02:56.199Z,7.87
2023-01-12T04:03:56.103Z,7.85
2023-01-12T04:04:56.082Z,7.88
2023-01-12T04:05:56.082Z,7.87
2023-01-12T04:07:01.055Z,7.87
2023-01-12T04:07:59.095Z,7.87
2023-01-12T04:08:56.027Z,7.88
2023-01-12T04:09:56.011Z,7.88
2023-01-12T04:10:56.000Z,7.88
2023-01-12T04:11:56.000Z,7.88
2023-01-12T04:12:56.020Z,7.90
2023-01-12T04:13:55.953Z,7.93
2023-01-12T04:14:55.946Z,7.93
2023-01-12T04:15:55.946Z,7.94
2023-01-12T04:16:55.913Z,7.97
2023-01-12T04:17:55.937Z,7.97
2023-01-12T04:18:55.914Z,7.97
2023-01-12T04:19:55.888Z,7.97
2023-01-12T04:20:55.866Z,8.00
2023-01-12T04:21:55.846Z,8.01
2023-01-12T04:22:55.888Z,8.03
2023-01-12T04:23:55.819Z,8.01
2023-01-12T04:24:55.807Z,8.06
2023-01-12T04:25:55.800Z,8.05
2023-01-12T04:26:58.772Z,8.06
2023-01-12T04:27:58.836Z,8.05
2023-01-12T04:28:55.748Z,8.06
2023-01-12T04:29:55.744Z,8.06
2023-01-12T04:30:55.723Z,8.08
2023-01-12T04:31:55.796Z,8.08
2023-01-12T04:32:55.693Z,8.06
2023-01-12T04:33:55.747Z,8.06
2023-01-12T04:34:55.671Z,8.08
2023-01-12T04:35:55.649Z,8.06
2023-01-12T04:36:55.651Z,8.08
2023-01-12T04:37:55.628Z,8.05
2023-01-12T04:38:55.618Z,8.08
2023-01-12T04:39:55.628Z,8.06
2023-01-12T04:40:55.579Z,8.05
2023-01-12T04:41:55.580Z,8.05
2023-01-12T04:42:55.562Z,8.05
2023-01-12T04:43:55.542Z,8.05
2023-01-12T04:44:55.565Z,8.05
2023-01-12T04:45:55.561Z,8.03
2023-01-12T04:46:58.502Z,8.03
2023-01-12T04:47:58.509Z,8.05
2023-01-12T04:48:55.472Z,8.03
2023-01-12T04:49:55.510Z,8.05
2023-01-12T04:50:55.452Z,8.05
2023-01-12T04:51:55.464Z,8.03
2023-01-12T04:52:55.428Z,8.03
2023-01-12T04:53:55.415Z,8.03
2023-01-12T04:54:56.878Z,8.03
2023-01-12T04:55:55.383Z,8.01
2023-01-12T04:56:55.445Z,8.03
2023-01-12T04:57:55.352Z,8.01
2023-01-12T04:58:55.341Z,8.01
2023-01-12T04:59:55.325Z,8.00
2023-01-12T05:00:55.355Z,8.01
2023-01-12T05:01:55.333Z,8.00
2023-01-12T05:02:55.324Z,8.00
2023-01-12T05:03:55.334Z,8.00
2023-01-12T05:04:55.309Z,8.01
2023-01-12T05:05:55.245Z,8.00
2023-01-12T05:06:58.225Z,8.01
2023-01-12T05:07:58.228Z,8.00
2023-01-12T05:08:55.210Z,8.00
2023-01-12T05:09:55.186Z,8.00
2023-01-12T05:10:55.206Z,7.98
2023-01-12T05:11:55.188Z,8.00
2023-01-12T05:12:55.154Z,8.00
2023-01-12T05:13:55.139Z,8.01
2023-01-12T05:14:55.109Z,8.03
2023-01-12T05:15:55.127Z,8.03
2023-01-12T05:16:55.207Z,8.03
2023-01-12T05:17:55.088Z,8.01
2023-01-12T05:18:55.060Z,8.03
2023-01-12T05:19:55.058Z,8.03
2023-01-12T05:20:55.038Z,8.03
2023-01-12T05:21:55.018Z,8.03
2023-01-12T05:22:55.052Z,8.03
2023-01-12T05:23:54.995Z,8.03
2023-01-12T05:24:55.010Z,8.05
2023-01-12T05:25:54.980Z,8.03
2023-01-12T05:26:57.949Z,8.06
2023-01-12T05:27:57.960Z,8.05
2023-01-12T05:28:54.931Z,8.06
2023-01-12T05:29:54.920Z,8.03
2023-01-12T05:30:55.025Z,8.05
2023-01-12T05:31:54.895Z,8.06
2023-01-12T05:32:54.873Z,8.06
2023-01-12T05:33:54.857Z,8.06
2023-01-12T05:34:54.839Z,8.06
2023-01-12T05:35:54.857Z,8.08
2023-01-12T05:36:54.960Z,8.09
2023-01-12T05:37:54.841Z,8.08
2023-01-12T05:38:54.809Z,8.08
2023-01-12T05:39:54.832Z,8.09
2023-01-12T05:40:54.761Z,8.09
2023-01-12T05:41:54.745Z,8.09
2023-01-12T05:42:54.790Z,8.10
2023-01-12T05:43:54.753Z,8.09
2023-01-12T05:44:54.702Z,8.10
2023-01-12T05:45:54.739Z,8.10
2023-01-12T05:46:57.679Z,8.12
2023-01-12T05:47:57.716Z,8.12
2023-01-12T05:48:54.655Z,8.13
2023-01-12T05:49:54.651Z,8.13
2023-01-12T05:50:54.627Z,8.15
2023-01-12T05:51:54.644Z,8.13
2023-01-12T05:52:54.597Z,8.13
2023-01-12T05:53:54.587Z,8.13
2023-01-12T05:54:54.567Z,8.15
2023-01-12T05:55:54.615Z,8.15
2023-01-12T05:56:54.544Z,8.15
2023-01-12T05:57:54.533Z,8.15
2023-01-12T05:58:54.508Z,8.16
2023-01-12T05:59:54.503Z,8.16
2023-01-12T06:00:54.513Z,8.18
2023-01-12T06:01:54.561Z,8.18
2023-01-12T06:02:54.458Z,8.18
2023-01-12T06:03:54.449Z,8.19
2023-01-12T06:04:54.477Z,8.19
2023-01-12T06:05:54.421Z,8.19
2023-01-12T06:06:57.429Z,8.19
2023-01-12T06:07:57.402Z,8.20
2023-01-12T06:08:54.386Z,8.19
2023-01-12T06:09:54.359Z,8.19
2023-01-12T06:10:54.375Z,8.20
2023-01-12T06:11:54.409Z,8.20
2023-01-12T06:12:54.311Z,8.20
2023-01-12T06:13:54.301Z,8.20
2023-01-12T06:14:54.299Z,8.20
2023-01-12T06:15:54.294Z,8.23
2023-01-12T06:16:54.263Z,8.20
2023-01-12T06:17:54.314Z,8.20
2023-01-12T06:18:54.235Z,8.23
2023-01-12T06:19:54.224Z,8.20
2023-01-12T06:20:54.224Z,8.20
2023-01-12T06:21:54.194Z,8.20
2023-01-12T06:22:54.178Z,8.23
2023-01-12T06:23:54.227Z,8.23
2023-01-12T06:24:54.154Z,8.23
2023-01-12T06:25:54.146Z,8.23
2023-01-12T06:26:57.128Z,8.23
2023-01-12T06:27:57.129Z,8.23
2023-01-12T06:28:54.097Z,8.18
2023-01-12T06:29:54.147Z,8.20
2023-01-12T06:30:54.100Z,8.23
2023-01-12T06:31:54.075Z,8.23
2023-01-12T06:32:54.036Z,8.23
2023-01-12T06:33:54.047Z,8.24
2023-01-12T06:34:54.016Z,8.24
2023-01-12T06:35:54.036Z,8.24
2023-01-12T06:36:54.054Z,8.26
2023-01-12T06:37:53.979Z,8.26
2023-01-12T06:38:53.953Z,8.26
2023-01-12T06:39:53.953Z,8.26
2023-01-12T06:40:53.930Z,8.26
2023-01-12T06:41:53.930Z,8.26
2023-01-12T06:42:53.990Z,8.27
2023-01-12T06:43:53.889Z,8.27
2023-01-12T06:44:53.871Z,8.28
2023-01-12T06:45:53.871Z,8.27
2023-01-12T06:46:56.864Z,8.28
2023-01-12T06:47:56.881Z,8.28
2023-01-12T06:48:53.880Z,8.30
2023-01-12T06:49:53.819Z,8.28
2023-01-12T06:51:01.350Z,8.28
2023-01-12T06:51:53.810Z,8.28
2023-01-12T06:52:53.792Z,8.28
2023-01-12T06:53:53.761Z,8.27
2023-01-12T06:54:53.813Z,8.27
2023-01-12T06:55:53.747Z,8.24
2023-01-12T06:56:53.750Z,8.26
2023-01-12T06:57:53.728Z,8.26
2023-01-12T06:58:53.719Z,8.24
2023-01-12T06:59:53.731Z,8.27
2023-01-12T07:00:53.712Z,8.28
2023-01-12T07:01:53.717Z,8.27
2023-01-12T07:02:53.704Z,8.27
2023-01-12T07:03:53.642Z,8.27
2023-01-12T07:04:53.629Z,8.26
2023-01-12T07:05:53.626Z,8.26
2023-01-12T07:06:56.585Z,8.27
2023-01-12T07:07:56.651Z,8.27
2023-01-12T07:08:53.560Z,8.27
2023-01-12T07:09:53.579Z,8.26
2023-01-12T07:10:53.534Z,8.27
2023-01-12T07:11:53.514Z,8.23
2023-01-12T07:12:53.510Z,8.20
2023-01-12T07:13:53.564Z,8.27
2023-01-12T07:14:53.486Z,8.27
2023-01-12T07:15:53.484Z,8.28
2023-01-12T07:16:53.562Z,8.28
2023-01-12T07:17:53.435Z,8.28
2023-01-12T07:18:53.438Z,8.28
2023-01-12T07:19:53.479Z,8.28
2023-01-12T07:20:53.397Z,8.28
2023-01-12T07:21:53.389Z,8.27
2023-01-12T07:22:53.377Z,8.27
2023-01-12T07:23:53.366Z,8.26
2023-01-12T07:24:53.377Z,8.26
2023-01-12T07:25:53.383Z,8.24
2023-01-12T07:26:56.313Z,8.18
2023-01-12T07:27:56.320Z,8.26
2023-01-12T07:28:53.318Z,8.26
2023-01-12T07:29:53.268Z,8.26
2023-01-12T07:30:53.292Z,8.26
2023-01-12T07:31:53.268Z,8.24
2023-01-12T07:32:53.244Z,8.24
2023-01-12T07:33:53.210Z,8.24
2023-01-12T07:34:53.221Z,8.26
2023-01-12T07:35:53.210Z,8.23
2023-01-12T07:36:53.183Z,8.24
2023-01-12T07:37:53.158Z,8.23
2023-01-12T07:38:53.144Z,8.24
2023-01-12T07:39:53.152Z,8.23
2023-01-12T07:40:53.170Z,8.20
2023-01-12T07:41:53.106Z,8.23
2023-01-12T07:42:53.093Z,8.20
2023-01-12T07:43:53.094Z,8.19
2023-01-12T07:44:53.107Z,8.20
2023-01-12T07:45:53.052Z,8.20
2023-01-12T07:46:56.100Z,8.19
2023-01-12T07:47:56.035Z,8.19
2023-01-12T07:48:53.014Z,8.18
2023-01-12T07:49:52.996Z,8.18
2023-01-12T07:50:52.999Z,8.18
2023-01-12T07:51:52.976Z,8.16
2023-01-12T07:52:53.033Z,8.18
2023-01-12T07:53:52.949Z,8.16
2023-01-12T07:54:52.933Z,8.16
2023-01-12T07:55:52.932Z,8.18
2023-01-12T07:56:52.884Z,8.18
2023-01-12T07:57:52.900Z,8.18
2023-01-12T07:58:52.892Z,8.19
2023-01-12T07:59:52.867Z,8.20
2023-01-12T08:00:52.899Z,8.23
2023-01-12T08:01:53.924Z,8.20
2023-01-12T08:02:52.830Z,8.23
2023-01-12T08:03:52.800Z,8.20
2023-01-12T08:04:52.846Z,8.23
2023-01-12T08:05:52.800Z,8.20
2023-01-12T08:06:55.747Z,8.24
2023-01-12T08:07:55.782Z,8.24
2023-01-12T08:08:52.728Z,8.26
2023-01-12T08:09:52.808Z,8.24
2023-01-12T08:10:52.719Z,8.27
2023-01-12T08:11:52.672Z,8.27
2023-01-12T08:12:52.670Z,8.26
2023-01-12T08:13:52.664Z,8.23
2023-01-12T08:14:52.643Z,8.24
2023-01-12T08:15:52.738Z,8.23
2023-01-12T08:16:52.610Z,8.24
2023-01-12T08:17:52.585Z,8.24
2023-01-12T08:18:52.586Z,8.26
2023-01-12T08:19:52.561Z,8.24
2023-01-12T08:20:52.540Z,8.26
2023-01-12T08:21:52.577Z,8.27
2023-01-12T08:22:52.542Z,8.27
2023-01-12T08:23:52.534Z,8.27
2023-01-12T08:24:52.490Z,8.28
2023-01-12T08:25:52.476Z,8.30
2023-01-12T08:26:55.526Z,8.31
2023-01-12T08:27:55.473Z,8.31
2023-01-12T08:28:52.440Z,8.34
2023-01-12T08:29:52.441Z,8.33
2023-01-12T08:30:52.414Z,8.34
2023-01-12T08:31:52.397Z,8.34
2023-01-12T08:32:52.427Z,8.33
2023-01-12T08:33:52.367Z,8.34
2023-01-12T08:34:52.373Z,8.36
2023-01-12T08:35:52.479Z,8.36
2023-01-12T08:36:52.327Z,8.36
2023-01-12T08:37:52.325Z,8.37
2023-01-12T08:38:52.336Z,8.42
2023-01-12T08:39:52.376Z,8.44
2023-01-12T08:40:52.278Z,8.45
2023-01-12T08:41:52.245Z,8.46
2023-01-12T08:42:52.236Z,8.48
2023-01-12T08:43:52.224Z,8.48
2023-01-12T08:44:52.386Z,8.49
2023-01-12T08:45:52.270Z,8.49
2023-01-12T08:46:55.241Z,8.51
2023-01-12T08:47:55.191Z,8.52
2023-01-12T08:48:52.169Z,8.53
2023-01-12T08:49:52.137Z,8.53
2023-01-12T08:50:52.131Z,8.53
2023-01-12T08:51:52.169Z,8.53
2023-01-12T08:52:52.098Z,8.56
2023-01-12T08:53:52.112Z,8.56
2023-01-12T08:54:52.077Z,8.60
2023-01-12T08:55:53.021Z,8.60
2023-01-12T08:56:52.061Z,8.64
2023-01-12T08:57:52.069Z,8.66
2023-01-12T08:58:52.021Z,8.69
2023-01-12T08:59:52.006Z,8.71
2023-01-12T09:00:52.174Z,8.78
2023-01-12T09:01:52.101Z,8.79
2023-01-12T09:02:52.018Z,8.81
2023-01-12T09:03:51.951Z,8.81
2023-01-12T09:04:51.981Z,8.84
2023-01-12T09:05:51.922Z,8.84
2023-01-12T09:06:54.948Z,8.85
2023-01-12T09:07:54.952Z,8.84
2023-01-12T09:08:51.889Z,8.84
2023-01-12T09:09:51.859Z,8.84
2023-01-12T09:10:51.853Z,8.87
2023-01-12T09:11:51.842Z,8.87
2023-01-12T09:12:51.930Z,8.91
2023-01-12T09:13:51.864Z,8.91
2023-01-12T09:14:51.799Z,8.92
2023-01-12T09:16:01.438Z,8.94
2023-01-12T09:16:52.794Z,8.95
2023-01-12T09:17:51.785Z,8.97
2023-01-12T09:18:51.784Z,8.99
2023-01-12T09:19:51.775Z,9.00
2023-01-12T09:20:51.763Z,9.00
2023-01-12T09:21:51.715Z,9.02
2023-01-12T09:22:51.709Z,9.02
2023-01-12T09:23:51.691Z,9.02
2023-01-12T09:24:51.663Z,9.02
2023-01-12T09:25:51.702Z,9.03
2023-01-12T09:26:54.640Z,9.04
2023-01-12T09:27:54.637Z,9.04
2023-01-12T09:28:51.642Z,9.10
2023-01-12T09:29:51.590Z,9.10
2023-01-12T09:30:51.690Z,9.11
2023-01-12T09:31:51.695Z,9.13
2023-01-12T09:32:51.559Z,9.13
2023-01-12T09:33:51.544Z,9.13
2023-01-12T09:34:51.542Z,9.14
2023-01-12T09:35:51.533Z,9.14
2023-01-12T09:36:51.501Z,9.16
2023-01-12T09:37:51.532Z,9.16
2023-01-12T09:38:51.485Z,9.21
2023-01-12T09:39:51.452Z,9.19
2023-01-12T09:40:51.492Z,9.22
2023-01-12T09:41:51.456Z,9.22
2023-01-12T09:42:51.414Z,9.25
2023-01-12T09:43:51.434Z,9.26
2023-01-12T09:44:51.415Z,9.28
2023-01-12T09:45:51.415Z,9.29
2023-01-12T09:46:54.354Z,9.31
2023-01-12T09:47:54.373Z,9.32
2023-01-12T09:48:51.339Z,9.36
2023-01-12T09:49:55.825Z,9.39
2023-01-12T09:50:52.307Z,9.41
2023-01-12T09:51:51.281Z,9.44
2023-01-12T09:52:51.340Z,9.46
2023-01-12T09:53:51.267Z,9.47
2023-01-12T09:54:51.248Z,9.48
2023-01-12T09:55:51.248Z,9.48
2023-01-12T09:56:51.227Z,9.50
2023-01-12T09:57:51.212Z,9.50
2023-01-12T09:58:51.222Z,9.50
2023-01-12T09:59:51.179Z,9.50
2023-01-12T10:00:51.256Z,9.50
2023-01-12T10:01:51.236Z,9.51
2023-01-12T10:02:51.308Z,9.51
2023-01-12T10:03:51.118Z,9.55
2023-01-12T10:04:51.112Z,9.56
2023-01-12T10:05:51.106Z,9.59
2023-01-12T10:06:54.082Z,9.62
2023-01-12T10:07:54.141Z,9.62
2023-01-12T10:08:51.079Z,9.66
2023-01-12T10:09:51.053Z,9.69
2023-01-12T10:10:51.122Z,9.72
2023-01-12T10:11:51.027Z,9.76
2023-01-12T10:12:50.992Z,9.79
2023-01-12T10:13:51.035Z,9.80
2023-01-12T10:14:50.983Z,9.82
2023-01-12T10:15:50.975Z,9.83
2023-01-12T10:16:50.983Z,9.84
2023-01-12T10:17:52.285Z,9.84
2023-01-12T10:18:52.404Z,9.84
2023-01-12T10:19:51.106Z,9.84
2023-01-12T10:20:50.963Z,9.87
2023-01-12T10:21:50.891Z,9.87
2023-01-12T10:22:50.875Z,9.89
2023-01-12T10:23:50.853Z,9.91
2023-01-12T10:24:50.848Z,9.91
2023-01-12T10:25:50.898Z,9.89
2023-01-12T10:26:53.817Z,9.91
2023-01-12T10:27:53.810Z,9.89
2023-01-12T10:28:50.794Z,9.91
2023-01-12T10:29:50.795Z,9.92
2023-01-12T10:30:50.840Z,9.94
2023-01-12T10:31:51.000Z,9.94
2023-01-12T10:32:50.731Z,9.94
2023-01-12T10:33:50.720Z,9.95
2023-01-12T10:34:50.719Z,9.97
2023-01-12T10:35:50.712Z,9.98
2023-01-12T10:36:50.710Z,9.99
2023-01-12T10:37:50.729Z,9.99
2023-01-12T10:38:50.652Z,10.01
2023-01-12T10:39:50.644Z,10.02
2023-01-12T10:40:50.681Z,10.04
2023-01-12T10:41:50.632Z,10.02
2023-01-12T10:42:50.601Z,10.04
2023-01-12T10:43:50.665Z,10.05
2023-01-12T10:44:50.578Z,9.99
2023-01-12T10:45:50.577Z,10.04
2023-01-12T10:46:53.551Z,10.04
2023-01-12T10:47:53.560Z,10.05
2023-01-12T10:48:50.526Z,10.09
2023-01-12T10:49:50.607Z,10.07
2023-01-12T10:50:50.527Z,10.09
2023-01-12T10:51:50.499Z,10.10
2023-01-12T10:52:50.476Z,10.12
2023-01-12T10:53:50.464Z,10.12
2023-01-12T10:54:50.478Z,10.12
2023-01-12T10:55:50.483Z,10.12
2023-01-12T10:56:50.424Z,10.13
2023-01-12T10:57:50.401Z,10.13
2023-01-12T10:58:50.397Z,10.16
2023-01-12T10:59:50.378Z,10.16
2023-01-12T11:00:50.693Z,10.15
2023-01-12T11:01:50.508Z,10.15
2023-01-12T11:02:50.396Z,10.16
2023-01-12T11:03:50.346Z,10.16
2023-01-12T11:04:50.322Z,10.16
2023-01-12T11:05:50.316Z,10.15
2023-01-12T11:06:53.301Z,10.15
2023-01-12T11:07:53.316Z,10.15
2023-01-12T11:08:50.248Z,10.16
2023-01-12T11:09:50.271Z,10.17
2023-01-12T11:10:50.219Z,10.19
2023-01-12T11:11:50.222Z,10.19
2023-01-12T11:12:50.229Z,10.22
2023-01-12T11:13:50.184Z,10.20
2023-01-12T11:14:50.206Z,10.23
2023-01-12T11:15:50.152Z,10.23
2023-01-12T11:16:50.202Z,10.23
2023-01-12T11:17:50.361Z,10.23
2023-01-12T11:18:50.163Z,10.22
2023-01-12T11:19:50.106Z,10.22
2023-01-12T11:20:50.083Z,10.23
2023-01-12T11:21:50.080Z,10.23
2023-01-12T11:22:50.066Z,10.22
2023-01-12T11:23:50.119Z,10.23
2023-01-12T11:24:50.035Z,10.23
2023-01-12T11:25:50.015Z,10.23
2023-01-12T11:26:53.016Z,10.22
2023-01-12T11:27:53.006Z,10.23
2023-01-12T11:28:49.972Z,10.25
2023-01-12T11:29:49.984Z,10.23
2023-01-12T11:30:50.024Z,10.26
2023-01-12T11:31:49.939Z,10.26
2023-01-12T11:32:49.931Z,10.28
2023-01-12T11:33:49.942Z,10.28
2023-01-12T11:34:49.907Z,10.31
2023-01-12T11:35:49.880Z,10.30
2023-01-12T11:36:49.881Z,10.34
2023-01-12T11:37:49.874Z,10.34
2023-01-12T11:38:49.911Z,10.37
2023-01-12T11:39:49.843Z,10.40
2023-01-12T11:40:49.820Z,10.44
2023-01-12T11:41:49.812Z,10.49
2023-01-12T11:42:49.803Z,10.54
2023-01-12T11:43:49.795Z,10.56
2023-01-12T11:44:49.840Z,10.56
2023-01-12T11:45:49.803Z,10.56
2023-01-12T11:46:52.742Z,10.57
2023-01-12T11:47:52.743Z,10.54
2023-01-12T11:48:49.709Z,10.56
2023-01-12T11:49:49.700Z,10.54
2023-01-12T11:50:49.733Z,10.56
2023-01-12T11:51:49.701Z,10.54
2023-01-12T11:52:49.670Z,10.54
2023-01-12T11:53:49.642Z,10.54
2023-01-12T11:54:49.632Z,10.53
2023-01-12T11:55:49.616Z,10.54
2023-01-12T11:56:49.667Z,10.56
2023-01-12T11:57:49.594Z,10.56
2023-01-12T11:58:49.581Z,10.57
2023-01-12T11:59:49.552Z,10.57
2023-01-12T12:00:49.727Z,10.59
2023-01-12T12:01:49.540Z,10.59
2023-01-12T12:02:49.582Z,10.61
2023-01-12T12:03:49.517Z,10.61
2023-01-12T12:04:49.485Z,10.61
2023-01-12T12:05:49.479Z,10.61
2023-01-12T12:06:52.453Z,10.61
2023-01-12T12:07:52.525Z,10.59
2023-01-12T12:08:49.432Z,10.59
2023-01-12T12:09:49.418Z,10.57
2023-01-12T12:10:49.399Z,10.57
2023-01-12T12:11:49.381Z,10.54
2023-01-12T12:12:49.367Z,10.60
2023-01-12T12:13:49.407Z,10.59
2023-01-12T12:14:49.452Z,10.57
2023-01-12T12:15:49.372Z,10.56
2023-01-12T12:16:49.312Z,10.56
2023-01-12T12:17:49.299Z,10.56
2023-01-12T12:18:49.277Z,10.56
2023-01-12T12:19:49.341Z,10.56
2023-01-12T12:20:49.250Z,10.59
2023-01-12T12:21:49.280Z,10.59
2023-01-12T12:22:49.219Z,10.63
2023-01-12T12:23:49.213Z,10.67
2023-01-12T12:24:49.198Z,10.72
2023-01-12T12:25:49.249Z,10.75
2023-01-12T12:26:52.171Z,10.78
2023-01-12T12:27:52.172Z,10.79
2023-01-12T12:28:49.140Z,10.76
2023-01-12T12:29:49.128Z,10.81
2023-01-12T12:30:49.113Z,10.82
2023-01-12T12:31:49.124Z,10.84
2023-01-12T12:32:49.097Z,10.82
2023-01-12T12:33:49.071Z,10.84
2023-01-12T12:34:49.095Z,10.86
2023-01-12T12:35:49.034Z,10.87
2023-01-12T12:36:49.023Z,10.86
2023-01-12T12:37:49.015Z,10.86
2023-01-12T12:38:49.000Z,10.86
2023-01-12T12:39:48.986Z,10.84
2023-01-12T12:40:49.014Z,10.86
2023-01-12T12:41:48.953Z,10.87
2023-01-12T12:42:48.926Z,10.87
2023-01-12T12:43:48.927Z,10.89
2023-01-12T12:44:48.896Z,10.87
2023-01-12T12:45:48.886Z,10.90
2023-01-12T12:46:51.928Z,10.89
2023-01-12T12:47:51.879Z,10.89
2023-01-12T12:48:48.898Z,10.90
2023-01-12T12:49:48.839Z,10.90
2023-01-12T12:50:48.811Z,10.90
2023-01-12T12:51:55.838Z,10.87
2023-01-12T12:52:48.804Z,10.90
2023-01-12T12:53:48.780Z,10.87
2023-01-12T12:54:48.786Z,10.89
2023-01-12T12:55:48.753Z,10.92
2023-01-12T12:56:48.738Z,10.93
2023-01-12T12:57:48.746Z,10.94
2023-01-12T12:58:48.737Z,10.97
2023-01-12T12:59:50.664Z,10.96
2023-01-12T13:00:48.705Z,10.97
2023-01-12T13:01:48.743Z,10.97
2023-01-12T13:02:48.699Z,10.99
2023-01-12T13:03:48.700Z,11.00
2023-01-12T13:04:48.628Z,10.99
2023-01-12T13:05:48.744Z,10.97
2023-01-12T13:06:51.600Z,10.99
2023-01-12T13:07:51.652Z,10.99
2023-01-12T13:08:48.576Z,11.00
2023-01-12T13:09:48.601Z,11.02
2023-01-12T13:10:48.553Z,11.02
2023-01-12T13:11:48.548Z,11.00
2023-01-12T13:12:48.529Z,11.00
2023-01-12T13:13:48.518Z,11.02